This is the latest recevied weather packets stored in our database for station/object N3WAX-1. If no packets are shown the sender has not sent any weather packets the latest 10 day(s).
| Time | Temp. | Humidity | Pressure | Rain* | Wind** | Luminosity | Snow |
|---|---|---|---|---|---|---|---|
| 1777892939 | 8.89° C | 74% | 1014.8 hPa | 0 mm | - | 200 W/m² | - |
| 1777892628 | 8.89° C | 74% | 1014.8 hPa | 0 mm | - | 149 W/m² | - |
| 1777892016 | 7.78° C | 74% | 1014.8 hPa | 0 mm | - | 109 W/m² | - |
| 1777891707 | 7.78° C | 75% | 1014.8 hPa | 0 mm | - | 88 W/m² | - |
| 1777891374 | 6.67° C | 75% | 1014.8 hPa | 0 mm | - | 56 W/m² | - |
| 1777890173 | 6.11° C | 77% | 1015 hPa | 0 mm | - | 28 W/m² | - |
| 1777888635 | 6.11° C | 74% | 1015 hPa | 0 mm | - | 0 W/m² | - |
| 1777887713 | 6.67° C | 73% | 1015.1 hPa | 0 mm | - | 0 W/m² | - |
| 1777886172 | 6.67° C | 72% | 1015.1 hPa | 0 mm | - | 0 W/m² | - |
| 1777884023 | 5.56° C | 73% | 1015.1 hPa | 0 mm | - | 0 W/m² | - |
| 1777883100 | 6.67° C | 69% | 1015.1 hPa | 0 mm | - | 0 W/m² | - |
| 1777882484 | 6.11° C | 69% | 1015.1 hPa | 0 mm | - | 0 W/m² | - |
| 1777881704 | 6.11° C | 69% | 1015 hPa | 0 mm | - | 0 W/m² | - |
| 1777880037 | 6.11° C | 69% | 1015 hPa | 0 mm | - | 0 W/m² | - |
| 1777878534 | 6.11° C | 69% | 1015 hPa | 0 mm | - | 0 W/m² | - |
| 1777877931 | 6.11° C | 69% | 1015.1 hPa | 0 mm | - | 0 W/m² | - |
| 1777874620 | 5.56° C | 71% | 1015.1 hPa | 0 mm | - | 0 W/m² | - |
| 1777874320 | 5.56° C | 71% | 1015.1 hPa | 0 mm | - | 0 W/m² | - |
| 1777873259 | 5.56° C | 72% | 1015.1 hPa | 0 mm | - | 0 W/m² | - |
| 1777872214 | 6.11° C | 70% | 1015.2 hPa | 0 mm | - | 0 W/m² | - |
| 1777871312 | 5.56° C | 72% | 1015.2 hPa | 0 mm | - | 0 W/m² | - |
| 1777870413 | 6.11° C | 70% | 1015.2 hPa | 0 mm | - | 0 W/m² | - |
| 1777867416 | 6.11° C | 70% | 1014.8 hPa | 0 mm | - | 0 W/m² | - |
| 1777866188 | 6.11° C | 69% | 1014.7 hPa | 0 mm | - | 0 W/m² | - |
| 1777864649 | 6.11° C | 68% | 1014.6 hPa | 0 mm | - | 0 W/m² | - |
* Rain latest hour (hover to see other rain measurements)
** Current wind speed in m/s (hover to see current wind gust speed)